PWSweather.com
Personal Weather Stations
Station Observations
IVARDE16
Ho Bugt, OksbolDK

Ho BugtOksbolDK

Lat: 55.614683, Lon: 8.252505

Elevation: 36

Station Type: Weather Station Oregon WMR200 / modified

http://www.blaavand-weather.dk

Latest ConditionsUpdated 11:25:20 AM GMT+01:01 Tuesday, Nov 12, 2019
Currently Today's Max Today's Min Today's Average
Temperature 43.7°F6.5°C 45.3°F7.4°C 40.5°F4.7°C 42.7°F5.9°C
Dew Point 41.2°F5.1°C 43.5°F6.4°C 34.5°F1.4°C 39.5°F4.2°C
Winds 7.6 mph SW12.2 kmh SW 23.7 mph -38.1 kmh - - 10.0 mph 16.1 kmh
Wind Gusts 10.7 mph17.2 kmh 26.2 mph42.2 kmh - -
Humidity 91% 94% 79% 88%
Pressure 29.44 in997.0 mb 29.47 in998.0 mb 29.35 in993.9 mb -
Precipitation - 0.45 in11.4 mm - -
Hour Temp Dew Point Humidity Winds Wind Gusts Pressure Precip Precip Rate Daily Precip Total
11:25 AM 43.7°F6.5°C 41.2°F5.1°C 91% 7.6 mph SW12.2 kmh SW 10.7 mph17.2 kmh 29.44 in997.0 mb 0.04 in1.0 mm 0.00 in0.0 mm 0.45 in11.4 mm
11:23 AM 43.7°F6.5°C 41.2°F5.1°C 91% 4.3 mph SSW6.9 kmh SSW 7.4 mph11.9 kmh 29.44 in997.0 mb 0.04 in1.0 mm 0.00 in0.0 mm 0.45 in11.4 mm
11:21 AM 43.7°F6.5°C 41.2°F5.1°C 91% 8.9 mph S14.3 kmh S 8.9 mph14.3 kmh 29.44 in997.0 mb 0.04 in1.0 mm 0.00 in0.0 mm 0.45 in11.4 mm
11:19 AM 43.7°F6.5°C 41.2°F5.1°C 91% 6.5 mph SSW10.5 kmh SSW 6.5 mph10.5 kmh 29.44 in997.0 mb 0.04 in1.0 mm 0.00 in0.0 mm 0.45 in11.4 mm
11:17 AM 43.7°F6.5°C 41.5°F5.3°C 92% 6.5 mph SSE10.5 kmh SSE 6.5 mph10.5 kmh 29.41 in995.9 mb 0.04 in1.0 mm 0.00 in0.0 mm 0.45 in11.4 mm
11:15 AM 43.7°F6.5°C 41.5°F5.3°C 92% 5.4 mph SSW8.7 kmh SSW 7.8 mph12.6 kmh 29.41 in995.9 mb 0.04 in1.0 mm 0.00 in0.0 mm 0.45 in11.4 mm
11:13 AM 43.7°F6.5°C 41.5°F5.3°C 92% 7.8 mph SSW12.6 kmh SSW 12.5 mph20.1 kmh 29.41 in995.9 mb 0.04 in1.0 mm 0.00 in0.0 mm 0.45 in11.4 mm
11:11 AM 43.7°F6.5°C 41.5°F5.3°C 92% 12.5 mph S20.1 kmh S 12.5 mph20.1 kmh 29.41 in995.9 mb 0.04 in1.0 mm 0.00 in0.0 mm 0.45 in11.4 mm
11:09 AM 43.9°F6.6°C 41.7°F5.4°C 92% 12.5 mph SSW20.1 kmh SSW 12.5 mph20.1 kmh 29.41 in995.9 mb 0.04 in1.0 mm 0.00 in0.0 mm 0.45 in11.4 mm
11:07 AM 43.9°F6.6°C 41.7°F5.4°C 92% 8.7 mph SSW14.0 kmh SSW 8.7 mph14.0 kmh 29.41 in995.9 mb 0.04 in1.0 mm 0.00 in0.0 mm 0.45 in11.4 mm
11:05 AM 43.9°F6.6°C 41.7°F5.4°C 92% 8.5 mph SSW13.7 kmh SSW 8.5 mph13.7 kmh 29.41 in995.9 mb 0.04 in1.0 mm 0.00 in0.0 mm 0.45 in11.4 mm
11:03 AM 43.7°F6.5°C 41.5°F5.3°C 92% 5.8 mph W9.3 kmh W 10.1 mph16.3 kmh 29.41 in995.9 mb 0.04 in1.0 mm 0.00 in0.0 mm 0.45 in11.4 mm
11:01 AM 43.7°F6.5°C 41.5°F5.3°C 92% 10.1 mph SSW16.3 kmh SSW 10.1 mph16.3 kmh 29.41 in995.9 mb 0.04 in1.0 mm 0.00 in0.0 mm 0.45 in11.4 mm
10:59 AM 43.5°F6.4°C 41.0°F5.0°C 91% 9.8 mph SSW15.8 kmh SSW 9.8 mph15.8 kmh 29.41 in995.9 mb 0.04 in1.0 mm 0.00 in0.0 mm 0.45 in11.4 mm
10:57 AM 43.5°F6.4°C 41.0°F5.0°C 91% 7.2 mph SSW11.6 kmh SSW 7.8 mph12.6 kmh 29.41 in995.9 mb 0.04 in1.0 mm 0.00 in0.0 mm 0.45 in11.4 mm
10:55 AM 43.5°F6.4°C 41.0°F5.0°C 91% 7.8 mph SSW12.6 kmh SSW 7.8 mph12.6 kmh 29.41 in995.9 mb 0.04 in1.0 mm 0.00 in0.0 mm 0.45 in11.4 mm
10:53 AM 43.3°F6.3°C 40.8°F4.9°C 91% 3.8 mph S6.1 kmh S 8.5 mph13.7 kmh 29.41 in995.9 mb 0.04 in1.0 mm 0.00 in0.0 mm 0.45 in11.4 mm
10:51 AM 43.3°F6.3°C 40.8°F4.9°C 91% 5.4 mph S8.7 kmh S 5.4 mph8.7 kmh 29.41 in995.9 mb 0.04 in1.0 mm 0.00 in0.0 mm 0.45 in11.4 mm
10:49 AM 43.3°F6.3°C 40.8°F4.9°C 91% 5.4 mph S8.7 kmh S 6.7 mph10.8 kmh 29.41 in995.9 mb 0.04 in1.0 mm 0.00 in0.0 mm 0.45 in11.4 mm
10:47 AM 43.3°F6.3°C 40.8°F4.9°C 91% 6.3 mph SSE10.1 kmh SSE 9.6 mph15.4 kmh 29.41 in995.9 mb 0.04 in1.0 mm 0.00 in0.0 mm 0.45 in11.4 mm
10:45 AM 43.3°F6.3°C 40.8°F4.9°C 91% 9.6 mph S15.4 kmh S 9.6 mph15.4 kmh 29.41 in995.9 mb 0.04 in1.0 mm 0.00 in0.0 mm 0.45 in11.4 mm
10:43 AM 43.3°F6.3°C 40.8°F4.9°C 91% 9.2 mph S14.8 kmh S 11.0 mph17.7 kmh 29.41 in995.9 mb 0.04 in1.0 mm 0.00 in0.0 mm 0.45 in11.4 mm
10:41 AM 43.3°F6.3°C 40.8°F4.9°C 91% 7.8 mph SSW12.6 kmh SSW 8.1 mph13.0 kmh 29.41 in995.9 mb 0.04 in1.0 mm 0.00 in0.0 mm 0.45 in11.4 mm
10:39 AM 43.5°F6.4°C 41.0°F5.0°C 91% 8.1 mph SSW13.0 kmh SSW 12.3 mph19.8 kmh 29.41 in995.9 mb 0.04 in1.0 mm 0.00 in0.0 mm 0.45 in11.4 mm
10:37 AM 43.5°F6.4°C 41.0°F5.0°C 91% 7.8 mph SSW12.6 kmh SSW 7.8 mph12.6 kmh 29.41 in995.9 mb 0.04 in1.0 mm 0.00 in0.0 mm 0.45 in11.4 mm
10:35 AM 43.5°F6.4°C 41.0°F5.0°C 91% 6.0 mph S9.7 kmh S 9.8 mph15.8 kmh 29.41 in995.9 mb 0.04 in1.0 mm 0.00 in0.0 mm 0.45 in11.4 mm
10:33 AM 43.7°F6.5°C 41.5°F5.3°C 92% 7.4 mph SSW11.9 kmh SSW 11.0 mph17.7 kmh 29.41 in995.9 mb 0.04 in1.0 mm 0.00 in0.0 mm 0.45 in11.4 mm
10:31 AM 43.7°F6.5°C 41.5°F5.3°C 92% 5.4 mph SE8.7 kmh SE 5.6 mph9.0 kmh 29.41 in995.9 mb 0.08 in2.0 mm 1.20 in30.5 mm 0.45 in11.4 mm
10:29 AM 43.7°F6.5°C 41.2°F5.1°C 91% 4.3 mph SSW6.9 kmh SSW 5.8 mph9.3 kmh 29.41 in995.9 mb 0.04 in1.0 mm 0.00 in0.0 mm 0.41 in10.4 mm
10:27 AM 43.5°F6.4°C 41.0°F5.0°C 91% 11.0 mph SSW17.7 kmh SSW 11.0 mph17.7 kmh 29.41 in995.9 mb 0.04 in1.0 mm 0.00 in0.0 mm 0.41 in10.4 mm
10:24 AM 43.5°F6.4°C 41.0°F5.0°C 91% 7.6 mph SSW12.2 kmh SSW 7.6 mph12.2 kmh 29.41 in995.9 mb 0.04 in1.0 mm 0.00 in0.0 mm 0.41 in10.4 mm
10:22 AM 43.5°F6.4°C 41.0°F5.0°C 91% 6.0 mph SW9.7 kmh SW 9.8 mph15.8 kmh 29.41 in995.9 mb 0.04 in1.0 mm 0.00 in0.0 mm 0.41 in10.4 mm
10:20 AM 43.5°F6.4°C 41.0°F5.0°C 91% 4.0 mph ESE6.4 kmh ESE 10.3 mph16.6 kmh 29.41 in995.9 mb 0.04 in1.0 mm 0.00 in0.0 mm 0.41 in10.4 mm
10:18 AM 43.5°F6.4°C 41.0°F5.0°C 91% 10.3 mph S16.6 kmh S 10.3 mph16.6 kmh 29.41 in995.9 mb 0.04 in1.0 mm 0.00 in0.0 mm 0.41 in10.4 mm
10:16 AM 43.5°F6.4°C 41.0°F5.0°C 91% 3.8 mph SSW6.1 kmh SSW 5.8 mph9.3 kmh 29.41 in995.9 mb 0.04 in1.0 mm 0.00 in0.0 mm 0.41 in10.4 mm
10:14 AM 43.5°F6.4°C 41.0°F5.0°C 91% 4.0 mph SSW6.4 kmh SSW 6.7 mph10.8 kmh 29.41 in995.9 mb 0.04 in1.0 mm 0.00 in0.0 mm 0.41 in10.4 mm
10:12 AM 43.5°F6.4°C 41.0°F5.0°C 91% 2.9 mph SSW4.7 kmh SSW 7.8 mph12.6 kmh 29.41 in995.9 mb 0.04 in1.0 mm 0.00 in0.0 mm 0.41 in10.4 mm
10:10 AM 43.5°F6.4°C 41.0°F5.0°C 91% 10.1 mph SSW16.3 kmh SSW 10.1 mph16.3 kmh 29.41 in995.9 mb 0.04 in1.0 mm 0.00 in0.0 mm 0.41 in10.4 mm
10:08 AM 43.5°F6.4°C 41.0°F5.0°C 91% 9.8 mph S15.8 kmh S 10.5 mph16.9 kmh 29.41 in995.9 mb 0.04 in1.0 mm 0.00 in0.0 mm 0.41 in10.4 mm
10:06 AM 43.5°F6.4°C 41.0°F5.0°C 91% 10.5 mph SSW16.9 kmh SSW 11.0 mph17.7 kmh 29.41 in995.9 mb 0.04 in1.0 mm 0.00 in0.0 mm 0.41 in10.4 mm
10:04 AM 43.5°F6.4°C 41.0°F5.0°C 91% 7.8 mph SSW12.6 kmh SSW 7.8 mph12.6 kmh 29.41 in995.9 mb 0.04 in1.0 mm 0.00 in0.0 mm 0.41 in10.4 mm
10:02 AM 43.3°F6.3°C 40.8°F4.9°C 91% 4.9 mph SSW7.9 kmh SSW 8.7 mph14.0 kmh 29.41 in995.9 mb 0.04 in1.0 mm 0.00 in0.0 mm 0.41 in10.4 mm
10:00 AM 43.3°F6.3°C 40.8°F4.9°C 91% 3.8 mph SSW6.1 kmh SSW 7.2 mph11.6 kmh 29.41 in995.9 mb 0.04 in1.0 mm 0.00 in0.0 mm 0.41 in10.4 mm
09:58 AM 43.3°F6.3°C 40.8°F4.9°C 91% 10.1 mph SSW16.3 kmh SSW 10.1 mph16.3 kmh 29.41 in995.9 mb 0.04 in1.0 mm 0.00 in0.0 mm 0.41 in10.4 mm
09:56 AM 43.3°F6.3°C 40.8°F4.9°C 91% 10.5 mph SSW16.9 kmh SSW 12.1 mph19.5 kmh 29.41 in995.9 mb 0.04 in1.0 mm 0.00 in0.0 mm 0.41 in10.4 mm
09:54 AM 43.3°F6.3°C 40.8°F4.9°C 91% 8.9 mph SSW14.3 kmh SSW 8.9 mph14.3 kmh 29.41 in995.9 mb 0.04 in1.0 mm 0.00 in0.0 mm 0.41 in10.4 mm
09:52 AM 43.3°F6.3°C 40.8°F4.9°C 91% 7.6 mph SSW12.2 kmh SSW 7.6 mph12.2 kmh 29.41 in995.9 mb 0.04 in1.0 mm 0.00 in0.0 mm 0.41 in10.4 mm
09:50 AM 43.3°F6.3°C 40.8°F4.9°C 91% 7.6 mph SSW12.2 kmh SSW 14.5 mph23.3 kmh 29.41 in995.9 mb 0.04 in1.0 mm 0.00 in0.0 mm 0.41 in10.4 mm
09:48 AM 43.3°F6.3°C 40.8°F4.9°C 91% 14.5 mph SW23.3 kmh SW 14.5 mph23.3 kmh 29.41 in995.9 mb 0.04 in1.0 mm 0.00 in0.0 mm 0.41 in10.4 mm
09:46 AM 43.3°F6.3°C 40.8°F4.9°C 91% 10.5 mph SSW16.9 kmh SSW 10.5 mph16.9 kmh 29.41 in995.9 mb 0.04 in1.0 mm 0.00 in0.0 mm 0.41 in10.4 mm
09:44 AM 43.2°F6.2°C 40.6°F4.8°C 91% 6.0 mph SSW9.7 kmh SSW 6.0 mph9.7 kmh 29.41 in995.9 mb 0.04 in1.0 mm 0.00 in0.0 mm 0.41 in10.4 mm
09:42 AM 43.2°F6.2°C 40.5°F4.7°C 90% 6.0 mph SSW9.7 kmh SSW 7.8 mph12.6 kmh 29.41 in995.9 mb 0.04 in1.0 mm 0.00 in0.0 mm 0.41 in10.4 mm
09:40 AM 43.0°F6.1°C 40.3°F4.6°C 90% 7.8 mph S12.6 kmh S 8.9 mph14.3 kmh 29.41 in995.9 mb 0.04 in1.0 mm 0.00 in0.0 mm 0.41 in10.4 mm
09:38 AM 43.0°F6.1°C 40.3°F4.6°C 90% 8.9 mph S14.3 kmh S 8.9 mph14.3 kmh 29.41 in995.9 mb 0.04 in1.0 mm 0.00 in0.0 mm 0.41 in10.4 mm
09:36 AM 43.0°F6.1°C 39.9°F4.4°C 89% 7.6 mph SSW12.2 kmh SSW 8.5 mph13.7 kmh 29.41 in995.9 mb 0.04 in1.0 mm 0.00 in0.0 mm 0.41 in10.4 mm
09:34 AM 42.8°F6.0°C 39.7°F4.3°C 89% 6.0 mph SSE9.7 kmh SSE 8.5 mph13.7 kmh 29.41 in995.9 mb 0.04 in1.0 mm 1.20 in30.5 mm 0.41 in10.4 mm
09:32 AM 42.8°F6.0°C 39.7°F4.3°C 89% 8.5 mph SSW13.7 kmh SSW 8.5 mph13.7 kmh 29.41 in995.9 mb 0.00 in0.0 mm 0.00 in0.0 mm 0.37 in9.4 mm
09:30 AM 42.8°F6.0°C 39.6°F4.2°C 88% 8.5 mph SSW13.7 kmh SSW 11.9 mph19.2 kmh 29.41 in995.9 mb 0.00 in0.0 mm 0.00 in0.0 mm 0.37 in9.4 mm
09:28 AM 42.8°F6.0°C 39.6°F4.2°C 88% 6.3 mph S10.1 kmh S 8.7 mph14.0 kmh 29.41 in995.9 mb 0.00 in0.0 mm 0.00 in0.0 mm 0.37 in9.4 mm
09:26 AM 42.6°F5.9°C 39.4°F4.1°C 88% 3.1 mph S5.0 kmh S 5.8 mph9.3 kmh 29.41 in995.9 mb 0.00 in0.0 mm 0.00 in0.0 mm 0.37 in9.4 mm
09:24 AM 42.6°F5.9°C 39.4°F4.1°C 88% 5.6 mph S9.0 kmh S 6.3 mph10.1 kmh 29.41 in995.9 mb 0.00 in0.0 mm 0.00 in0.0 mm 0.37 in9.4 mm
09:22 AM 42.6°F5.9°C 39.4°F4.1°C 88% 5.8 mph SSE9.3 kmh SSE 5.8 mph9.3 kmh 29.41 in995.9 mb 0.00 in0.0 mm 0.00 in0.0 mm 0.37 in9.4 mm
09:20 AM 42.6°F5.9°C 39.0°F3.9°C 87% 3.4 mph SSE5.5 kmh SSE 7.8 mph12.6 kmh 29.41 in995.9 mb 0.00 in0.0 mm 0.00 in0.0 mm 0.37 in9.4 mm
09:18 AM 42.8°F6.0°C 39.2°F4.0°C 87% 4.9 mph S7.9 kmh S 4.9 mph7.9 kmh 29.41 in995.9 mb 0.00 in0.0 mm 0.00 in0.0 mm 0.37 in9.4 mm
09:16 AM 42.8°F6.0°C 39.2°F4.0°C 87% 9.8 mph S15.8 kmh S 10.7 mph17.2 kmh 29.41 in995.9 mb 0.04 in1.0 mm 0.00 in0.0 mm 0.37 in9.4 mm
09:14 AM 43.0°F6.1°C 39.7°F4.3°C 88% 10.7 mph SSW17.2 kmh SSW 10.7 mph17.2 kmh 29.41 in995.9 mb 0.04 in1.0 mm 0.00 in0.0 mm 0.37 in9.4 mm
09:12 AM 43.2°F6.2°C 40.1°F4.5°C 89% 11.4 mph SSW18.3 kmh SSW 11.4 mph18.3 kmh 29.41 in995.9 mb 0.04 in1.0 mm 0.00 in0.0 mm 0.37 in9.4 mm
09:10 AM 43.5°F6.4°C 40.8°F4.9°C 90% 5.8 mph SE9.3 kmh SE 15.4 mph24.8 kmh 29.41 in995.9 mb 0.04 in1.0 mm 0.00 in0.0 mm 0.37 in9.4 mm
09:08 AM 43.7°F6.5°C 41.0°F5.0°C 90% 15.2 mph SSW24.5 kmh SSW 15.2 mph24.5 kmh 29.41 in995.9 mb 0.04 in1.0 mm 0.00 in0.0 mm 0.37 in9.4 mm
09:06 AM 44.1°F6.7°C 41.5°F5.3°C 91% 5.6 mph SSW9.0 kmh SSW 11.0 mph17.7 kmh 29.41 in995.9 mb 0.04 in1.0 mm 0.00 in0.0 mm 0.37 in9.4 mm
09:04 AM 44.1°F6.7°C 41.5°F5.3°C 91% 6.9 mph SSW11.1 kmh SSW 10.1 mph16.3 kmh 29.41 in995.9 mb 0.04 in1.0 mm 0.00 in0.0 mm 0.37 in9.4 mm
09:02 AM 43.9°F6.6°C 41.4°F5.2°C 91% 10.1 mph SSW16.3 kmh SSW 10.7 mph17.2 kmh 29.41 in995.9 mb 0.04 in1.0 mm 0.00 in0.0 mm 0.37 in9.4 mm
09:00 AM 44.1°F6.7°C 41.5°F5.3°C 91% 7.6 mph SW12.2 kmh SW 7.6 mph12.2 kmh 29.41 in995.9 mb 0.04 in1.0 mm 0.00 in0.0 mm 0.37 in9.4 mm
08:58 AM 43.9°F6.6°C 41.4°F5.2°C 91% 6.3 mph SSW10.1 kmh SSW 6.3 mph10.1 kmh 29.41 in995.9 mb 0.04 in1.0 mm 0.00 in0.0 mm 0.37 in9.4 mm
08:56 AM 43.9°F6.6°C 41.4°F5.2°C 91% 10.1 mph S16.3 kmh S 10.1 mph16.3 kmh 29.41 in995.9 mb 0.04 in1.0 mm 0.00 in0.0 mm 0.37 in9.4 mm
08:54 AM 43.9°F6.6°C 41.4°F5.2°C 91% 8.7 mph SSW14.0 kmh SSW 8.7 mph14.0 kmh 29.41 in995.9 mb 0.04 in1.0 mm 0.00 in0.0 mm 0.37 in9.4 mm
08:52 AM 43.9°F6.6°C 41.4°F5.2°C 91% 7.8 mph SSE12.6 kmh SSE 10.3 mph16.6 kmh 29.41 in995.9 mb 0.04 in1.0 mm 0.00 in0.0 mm 0.37 in9.4 mm
08:50 AM 43.9°F6.6°C 41.4°F5.2°C 91% 10.3 mph SSW16.6 kmh SSW 10.3 mph16.6 kmh 29.41 in995.9 mb 0.04 in1.0 mm 0.00 in0.0 mm 0.37 in9.4 mm
08:48 AM 43.7°F6.5°C 41.2°F5.1°C 91% 7.6 mph S12.2 kmh S 7.6 mph12.2 kmh 29.41 in995.9 mb 0.04 in1.0 mm 0.00 in0.0 mm 0.37 in9.4 mm
08:46 AM 43.7°F6.5°C 41.2°F5.1°C 91% 6.3 mph S10.1 kmh S 7.6 mph12.2 kmh 29.41 in995.9 mb 0.04 in1.0 mm 0.00 in0.0 mm 0.37 in9.4 mm
08:44 AM 43.7°F6.5°C 41.2°F5.1°C 91% 5.6 mph SSW9.0 kmh SSW 10.1 mph16.3 kmh 29.41 in995.9 mb 0.04 in1.0 mm 0.00 in0.0 mm 0.37 in9.4 mm
08:42 AM 43.7°F6.5°C 41.2°F5.1°C 91% 11.0 mph S17.7 kmh S 11.0 mph17.7 kmh 29.41 in995.9 mb 0.04 in1.0 mm 0.00 in0.0 mm 0.37 in9.4 mm
08:40 AM 43.7°F6.5°C 41.2°F5.1°C 91% 9.2 mph SSW14.8 kmh SSW 9.2 mph14.8 kmh 29.41 in995.9 mb 0.04 in1.0 mm 0.00 in0.0 mm 0.37 in9.4 mm
08:38 AM 43.7°F6.5°C 41.2°F5.1°C 91% 9.2 mph WSW14.8 kmh WSW 9.6 mph15.4 kmh 29.41 in995.9 mb 0.04 in1.0 mm 0.00 in0.0 mm 0.37 in9.4 mm
08:36 AM 43.5°F6.4°C 41.0°F5.0°C 91% 9.6 mph SSW15.4 kmh SSW 11.0 mph17.7 kmh 29.41 in995.9 mb 0.04 in1.0 mm 0.00 in0.0 mm 0.37 in9.4 mm
08:34 AM 43.5°F6.4°C 41.0°F5.0°C 91% 8.7 mph SSW14.0 kmh SSW 10.3 mph16.6 kmh 29.41 in995.9 mb 0.04 in1.0 mm 0.00 in0.0 mm 0.37 in9.4 mm
08:32 AM 43.3°F6.3°C 40.8°F4.9°C 91% 5.8 mph SSE9.3 kmh SSE 6.3 mph10.1 kmh 29.38 in994.9 mb 0.08 in2.0 mm 0.00 in0.0 mm 0.37 in9.4 mm
08:30 AM 43.3°F6.3°C 40.8°F4.9°C 91% 7.2 mph SSW11.6 kmh SSW 7.2 mph11.6 kmh 29.38 in994.9 mb 0.08 in2.0 mm 0.00 in0.0 mm 0.37 in9.4 mm
08:28 AM 43.2°F6.2°C 40.5°F4.7°C 90% 7.2 mph SSW11.6 kmh SSW 10.5 mph16.9 kmh 29.38 in994.9 mb 0.08 in2.0 mm 0.00 in0.0 mm 0.37 in9.4 mm
08:26 AM 43.2°F6.2°C 40.5°F4.7°C 90% 7.6 mph SSW12.2 kmh SSW 13.4 mph21.6 kmh 29.38 in994.9 mb 0.08 in2.0 mm 0.00 in0.0 mm 0.37 in9.4 mm
08:24 AM 43.0°F6.1°C 40.3°F4.6°C 90% 12.3 mph SSE19.8 kmh SSE 12.3 mph19.8 kmh 29.38 in994.9 mb 0.08 in2.0 mm 0.00 in0.0 mm 0.37 in9.4 mm
08:22 AM 42.8°F6.0°C 39.7°F4.3°C 89% 8.5 mph SSW13.7 kmh SSW 8.5 mph13.7 kmh 29.38 in994.9 mb 0.08 in2.0 mm 0.00 in0.0 mm 0.37 in9.4 mm
08:20 AM 42.6°F5.9°C 39.6°F4.2°C 89% 7.8 mph SW12.6 kmh SW 7.8 mph12.6 kmh 29.38 in994.9 mb 0.08 in2.0 mm 0.00 in0.0 mm 0.37 in9.4 mm
08:18 AM 42.6°F5.9°C 39.6°F4.2°C 89% 5.8 mph SSW9.3 kmh SSW 7.2 mph11.6 kmh 29.38 in994.9 mb 0.08 in2.0 mm 1.20 in30.5 mm 0.37 in9.4 mm
08:16 AM 42.6°F5.9°C 39.6°F4.2°C 89% 7.2 mph SSW11.6 kmh SSW 9.8 mph15.8 kmh 29.38 in994.9 mb 0.04 in1.0 mm 0.00 in0.0 mm 0.33 in8.4 mm
08:14 AM 42.6°F5.9°C 39.4°F4.1°C 88% 7.8 mph SSW12.6 kmh SSW 7.8 mph12.6 kmh 29.38 in994.9 mb 0.04 in1.0 mm 0.00 in0.0 mm 0.33 in8.4 mm
08:12 AM 42.6°F5.9°C 39.4°F4.1°C 88% 7.8 mph SSW12.6 kmh SSW 7.8 mph12.6 kmh 29.38 in994.9 mb 0.04 in1.0 mm 0.00 in0.0 mm 0.33 in8.4 mm
08:10 AM 42.6°F5.9°C 39.4°F4.1°C 88% 3.6 mph SSW5.8 kmh SSW 8.7 mph14.0 kmh 29.38 in994.9 mb 0.04 in1.0 mm 0.00 in0.0 mm 0.33 in8.4 mm
08:08 AM 42.6°F5.9°C 39.4°F4.1°C 88% 7.6 mph SSW12.2 kmh SSW 11.0 mph17.7 kmh 29.38 in994.9 mb 0.04 in1.0 mm 0.00 in0.0 mm 0.33 in8.4 mm
08:06 AM 42.6°F5.9°C 39.6°F4.2°C 89% 11.0 mph SSW17.7 kmh SSW 11.0 mph17.7 kmh 29.38 in994.9 mb 0.04 in1.0 mm 0.00 in0.0 mm 0.33 in8.4 mm
08:04 AM 42.8°F6.0°C 39.7°F4.3°C 89% 5.8 mph SSW9.3 kmh SSW 8.5 mph13.7 kmh 29.38 in994.9 mb 0.04 in1.0 mm 0.00 in0.0 mm 0.33 in8.4 mm
08:02 AM 43.0°F6.1°C 40.3°F4.6°C 90% 8.5 mph SSW13.7 kmh SSW 9.8 mph15.8 kmh 29.38 in994.9 mb 0.09 in2.3 mm 0.00 in0.0 mm 0.33 in8.4 mm
08:00 AM 43.2°F6.2°C 40.5°F4.7°C 90% 9.2 mph SSW14.8 kmh SSW 13.0 mph20.9 kmh 29.38 in994.9 mb 0.09 in2.3 mm 0.00 in0.0 mm 0.33 in8.4 mm
07:58 AM 43.3°F6.3°C 40.6°F4.8°C 90% 13.0 mph WSW20.9 kmh WSW 13.0 mph20.9 kmh 29.38 in994.9 mb 0.09 in2.3 mm 0.00 in0.0 mm 0.33 in8.4 mm
07:56 AM 43.3°F6.3°C 40.6°F4.8°C 90% 11.9 mph SW19.2 kmh SW 11.9 mph19.2 kmh 29.38 in994.9 mb 0.09 in2.3 mm 0.00 in0.0 mm 0.33 in8.4 mm
07:54 AM 43.3°F6.3°C 40.6°F4.8°C 90% 11.0 mph SW17.7 kmh SW 12.3 mph19.8 kmh 29.38 in994.9 mb 0.09 in2.3 mm 0.00 in0.0 mm 0.33 in8.4 mm
07:52 AM 43.3°F6.3°C 40.6°F4.8°C 90% 6.5 mph SW10.5 kmh SW 10.7 mph17.2 kmh 29.38 in994.9 mb 0.09 in2.3 mm 0.00 in0.0 mm 0.33 in8.4 mm
07:50 AM 43.3°F6.3°C 40.6°F4.8°C 90% 10.7 mph SW17.2 kmh SW 10.7 mph17.2 kmh 29.38 in994.9 mb 0.09 in2.3 mm 0.00 in0.0 mm 0.33 in8.4 mm
07:48 AM 43.3°F6.3°C 40.3°F4.6°C 89% 7.4 mph SW11.9 kmh SW 12.5 mph20.1 kmh 29.38 in994.9 mb 0.09 in2.3 mm 0.00 in0.0 mm 0.33 in8.4 mm
07:46 AM 43.2°F6.2°C 40.1°F4.5°C 89% 8.5 mph SSW13.7 kmh SSW 8.5 mph13.7 kmh 29.38 in994.9 mb 0.09 in2.3 mm 0.00 in0.0 mm 0.33 in8.4 mm
07:44 AM 43.0°F6.1°C 39.9°F4.4°C 89% 11.0 mph S17.7 kmh S 11.0 mph17.7 kmh 29.38 in994.9 mb 0.09 in2.3 mm 0.00 in0.0 mm 0.33 in8.4 mm
07:42 AM 43.0°F6.1°C 39.7°F4.3°C 88% 8.7 mph SSW14.0 kmh SSW 8.7 mph14.0 kmh 29.38 in994.9 mb 0.09 in2.3 mm 0.00 in0.0 mm 0.33 in8.4 mm
07:40 AM 43.0°F6.1°C 39.7°F4.3°C 88% 11.0 mph S17.7 kmh S 11.0 mph17.7 kmh 29.38 in994.9 mb 0.09 in2.3 mm 0.00 in0.0 mm 0.33 in8.4 mm
07:38 AM 42.8°F6.0°C 39.6°F4.2°C 88% 11.0 mph S17.7 kmh S 11.0 mph17.7 kmh 29.38 in994.9 mb 0.09 in2.3 mm 0.00 in0.0 mm 0.33 in8.4 mm
07:36 AM 42.8°F6.0°C 39.2°F4.0°C 87% 8.7 mph SW14.0 kmh SW 8.7 mph14.0 kmh 29.38 in994.9 mb 0.09 in2.3 mm 0.00 in0.0 mm 0.33 in8.4 mm
07:34 AM 43.0°F6.1°C 39.4°F4.1°C 87% 7.8 mph SSE12.6 kmh SSE 9.6 mph15.4 kmh 29.38 in994.9 mb 0.09 in2.3 mm 1.20 in30.5 mm 0.33 in8.4 mm
07:32 AM 43.0°F6.1°C 39.4°F4.1°C 87% 8.7 mph S14.0 kmh S 8.7 mph14.0 kmh 29.38 in994.9 mb 0.05 in1.3 mm 0.00 in0.0 mm 0.29 in7.4 mm
07:30 AM 43.0°F6.1°C 39.4°F4.1°C 87% 8.5 mph SSW13.7 kmh SSW 11.9 mph19.2 kmh 29.38 in994.9 mb 0.05 in1.3 mm 0.00 in0.0 mm 0.29 in7.4 mm
07:28 AM 43.2°F6.2°C 39.9°F4.4°C 88% 5.6 mph S9.0 kmh S 8.5 mph13.7 kmh 29.38 in994.9 mb 0.05 in1.3 mm 0.00 in0.0 mm 0.29 in7.4 mm
07:26 AM 43.3°F6.3°C 40.1°F4.5°C 88% 7.8 mph SW12.6 kmh SW 7.8 mph12.6 kmh 29.38 in994.9 mb 0.05 in1.3 mm 0.00 in0.0 mm 0.29 in7.4 mm
07:24 AM 43.5°F6.4°C 40.5°F4.7°C 89% 7.4 mph SSW11.9 kmh SSW 8.1 mph13.0 kmh 29.38 in994.9 mb 0.05 in1.3 mm 0.00 in0.0 mm 0.29 in7.4 mm
07:22 AM 43.7°F6.5°C 40.6°F4.8°C 89% 8.1 mph WSW13.0 kmh WSW 8.1 mph13.0 kmh 29.38 in994.9 mb 0.05 in1.3 mm 0.00 in0.0 mm 0.29 in7.4 mm
07:20 AM 43.7°F6.5°C 40.5°F4.7°C 88% 7.6 mph SW12.2 kmh SW 7.6 mph12.2 kmh 29.38 in994.9 mb 0.05 in1.3 mm 0.00 in0.0 mm 0.29 in7.4 mm
07:18 AM 43.7°F6.5°C 40.5°F4.7°C 88% 7.8 mph SSW12.6 kmh SSW 8.1 mph13.0 kmh 29.38 in994.9 mb 0.05 in1.3 mm 0.00 in0.0 mm 0.29 in7.4 mm
07:16 AM 43.7°F6.5°C 40.5°F4.7°C 88% 7.8 mph SSW12.6 kmh SSW 7.8 mph12.6 kmh 29.38 in994.9 mb 0.05 in1.3 mm 0.00 in0.0 mm 0.29 in7.4 mm
07:14 AM 43.7°F6.5°C 40.1°F4.5°C 87% 8.7 mph SW14.0 kmh SW 8.7 mph14.0 kmh 29.38 in994.9 mb 0.05 in1.3 mm 0.00 in0.0 mm 0.29 in7.4 mm
07:12 AM 43.7°F6.5°C 40.1°F4.5°C 87% 3.4 mph SE5.5 kmh SE 10.1 mph16.3 kmh 29.38 in994.9 mb 0.05 in1.3 mm 0.00 in0.0 mm 0.29 in7.4 mm
07:10 AM 43.7°F6.5°C 40.1°F4.5°C 87% 7.8 mph S12.6 kmh S 11.0 mph17.7 kmh 29.38 in994.9 mb 0.05 in1.3 mm 0.00 in0.0 mm 0.29 in7.4 mm
07:08 AM 43.9°F6.6°C 40.6°F4.8°C 88% 8.1 mph SSW13.0 kmh SSW 11.0 mph17.7 kmh 29.38 in994.9 mb 0.05 in1.3 mm 0.00 in0.0 mm 0.29 in7.4 mm
07:06 AM 44.2°F6.8°C 41.5°F5.3°C 90% 10.3 mph S16.6 kmh S 10.3 mph16.6 kmh 29.38 in994.9 mb 0.05 in1.3 mm 0.00 in0.0 mm 0.29 in7.4 mm
07:04 AM 44.8°F7.1°C 42.1°F5.6°C 90% 5.6 mph SSW9.0 kmh SSW 5.6 mph9.0 kmh 29.38 in994.9 mb 0.05 in1.3 mm 1.50 in38.1 mm 0.29 in7.4 mm
07:02 AM 45.1°F7.3°C 42.4°F5.8°C 90% 11.2 mph SW18.0 kmh SW 11.2 mph18.0 kmh 29.35 in993.9 mb 0.00 in0.0 mm 0.00 in0.0 mm 0.24 in6.1 mm
07:00 AM 45.0°F7.2°C 42.3°F5.7°C 90% 5.6 mph S9.0 kmh S 9.8 mph15.8 kmh 29.35 in993.9 mb 0.00 in0.0 mm 0.00 in0.0 mm 0.24 in6.1 mm
06:58 AM 45.0°F7.2°C 42.3°F5.7°C 90% 8.9 mph SSW14.3 kmh SSW 8.9 mph14.3 kmh 29.35 in993.9 mb 0.00 in0.0 mm 0.00 in0.0 mm 0.24 in6.1 mm
06:56 AM 45.0°F7.2°C 42.3°F5.7°C 90% 6.5 mph SSW10.5 kmh SSW 6.5 mph10.5 kmh 29.35 in993.9 mb 0.00 in0.0 mm 0.00 in0.0 mm 0.24 in6.1 mm
06:54 AM 45.0°F7.2°C 42.3°F5.7°C 90% 6.5 mph S10.5 kmh S 10.7 mph17.2 kmh 29.35 in993.9 mb 0.00 in0.0 mm 0.00 in0.0 mm 0.24 in6.1 mm
06:52 AM 45.0°F7.2°C 42.4°F5.8°C 91% 10.5 mph SSW16.9 kmh SSW 10.7 mph17.2 kmh 29.35 in993.9 mb 0.00 in0.0 mm 0.00 in0.0 mm 0.24 in6.1 mm
06:50 AM 45.1°F7.3°C 42.6°F5.9°C 91% 7.8 mph SE12.6 kmh SE 12.3 mph19.8 kmh 29.35 in993.9 mb 0.00 in0.0 mm 0.00 in0.0 mm 0.24 in6.1 mm
06:48 AM 45.1°F7.3°C 42.6°F5.9°C 91% 6.5 mph SSE10.5 kmh SSE 8.1 mph13.0 kmh 29.35 in993.9 mb 0.00 in0.0 mm 0.00 in0.0 mm 0.24 in6.1 mm
06:46 AM 45.1°F7.3°C 42.6°F5.9°C 91% 8.1 mph SSE13.0 kmh SSE 9.4 mph15.1 kmh 29.35 in993.9 mb 0.00 in0.0 mm 0.00 in0.0 mm 0.24 in6.1 mm
06:44 AM 45.1°F7.3°C 42.6°F5.9°C 91% 9.4 mph SSW15.1 kmh SSW 11.0 mph17.7 kmh 29.35 in993.9 mb 0.00 in0.0 mm 0.00 in0.0 mm 0.24 in6.1 mm
06:42 AM 45.1°F7.3°C 42.6°F5.9°C 91% 10.7 mph SSE17.2 kmh SSE 10.7 mph17.2 kmh 29.35 in993.9 mb 0.00 in0.0 mm 0.00 in0.0 mm 0.24 in6.1 mm
06:40 AM 45.1°F7.3°C 42.6°F5.9°C 91% 6.3 mph S10.1 kmh S 11.0 mph17.7 kmh 29.35 in993.9 mb 0.00 in0.0 mm 0.00 in0.0 mm 0.24 in6.1 mm
06:38 AM 45.1°F7.3°C 43.0°F6.1°C 92% 11.0 mph SSW17.7 kmh SSW 11.0 mph17.7 kmh 29.35 in993.9 mb 0.00 in0.0 mm 0.00 in0.0 mm 0.24 in6.1 mm
06:36 AM 45.1°F7.3°C 43.0°F6.1°C 92% 6.0 mph S9.7 kmh S 10.7 mph17.2 kmh 29.35 in993.9 mb 0.00 in0.0 mm 0.00 in0.0 mm 0.24 in6.1 mm
06:34 AM 45.3°F7.4°C 43.2°F6.2°C 92% 10.7 mph SSW17.2 kmh SSW 10.7 mph17.2 kmh 29.35 in993.9 mb 0.00 in0.0 mm 0.00 in0.0 mm 0.24 in6.1 mm
06:32 AM 45.3°F7.4°C 43.2°F6.2°C 92% 8.5 mph SSW13.7 kmh SSW 8.5 mph13.7 kmh 29.35 in993.9 mb 0.00 in0.0 mm 0.00 in0.0 mm 0.24 in6.1 mm
06:30 AM 45.3°F7.4°C 43.2°F6.2°C 92% 5.4 mph ESE8.7 kmh ESE 10.3 mph16.6 kmh 29.35 in993.9 mb 0.00 in0.0 mm 0.00 in0.0 mm 0.24 in6.1 mm
06:28 AM 45.1°F7.3°C 43.0°F6.1°C 92% 10.7 mph S17.2 kmh S 10.7 mph17.2 kmh 29.35 in993.9 mb 0.00 in0.0 mm 0.00 in0.0 mm 0.24 in6.1 mm
06:26 AM 45.1°F7.3°C 43.0°F6.1°C 92% 10.3 mph S16.6 kmh S 10.3 mph16.6 kmh 29.35 in993.9 mb 0.00 in0.0 mm 0.00 in0.0 mm 0.24 in6.1 mm
06:24 AM 45.1°F7.3°C 43.0°F6.1°C 92% 6.5 mph S10.5 kmh S 12.1 mph19.5 kmh 29.35 in993.9 mb 0.00 in0.0 mm 0.00 in0.0 mm 0.24 in6.1 mm
06:22 AM 45.1°F7.3°C 43.0°F6.1°C 92% 7.4 mph SSW11.9 kmh SSW 7.4 mph11.9 kmh 29.35 in993.9 mb 0.00 in0.0 mm 0.00 in0.0 mm 0.24 in6.1 mm
06:20 AM 45.1°F7.3°C 43.0°F6.1°C 92% 7.8 mph SSW12.6 kmh SSW 7.8 mph12.6 kmh 29.35 in993.9 mb 0.00 in0.0 mm 0.00 in0.0 mm 0.24 in6.1 mm
06:18 AM 45.1°F7.3°C 43.0°F6.1°C 92% 10.7 mph SSE17.2 kmh SSE 10.7 mph17.2 kmh 29.35 in993.9 mb 0.00 in0.0 mm 0.00 in0.0 mm 0.24 in6.1 mm
06:16 AM 45.1°F7.3°C 43.0°F6.1°C 92% 7.2 mph SSW11.6 kmh SSW 8.1 mph13.0 kmh 29.38 in994.9 mb 0.00 in0.0 mm 0.00 in0.0 mm 0.24 in6.1 mm
06:14 AM 45.1°F7.3°C 43.0°F6.1°C 92% 6.3 mph SSW10.1 kmh SSW 9.8 mph15.8 kmh 29.38 in994.9 mb 0.00 in0.0 mm 0.00 in0.0 mm 0.24 in6.1 mm
06:12 AM 45.1°F7.3°C 43.0°F6.1°C 92% 9.8 mph SSE15.8 kmh SSE 9.8 mph15.8 kmh 29.38 in994.9 mb 0.00 in0.0 mm 0.00 in0.0 mm 0.24 in6.1 mm
06:10 AM 45.1°F7.3°C 43.0°F6.1°C 92% 6.0 mph SSW9.7 kmh SSW 10.5 mph16.9 kmh 29.38 in994.9 mb 0.00 in0.0 mm 0.00 in0.0 mm 0.24 in6.1 mm
06:08 AM 45.0°F7.2°C 42.8°F6.0°C 92% 8.1 mph SSW13.0 kmh SSW 8.1 mph13.0 kmh 29.38 in994.9 mb 0.00 in0.0 mm 0.00 in0.0 mm 0.24 in6.1 mm
06:06 AM 45.0°F7.2°C 42.8°F6.0°C 92% 4.0 mph S6.4 kmh S 4.0 mph6.4 kmh 29.38 in994.9 mb 0.00 in0.0 mm 0.00 in0.0 mm 0.24 in6.1 mm
06:04 AM 45.0°F7.2°C 42.8°F6.0°C 92% 9.8 mph S15.8 kmh S 9.8 mph15.8 kmh 29.38 in994.9 mb 0.00 in0.0 mm 0.00 in0.0 mm 0.24 in6.1 mm
06:02 AM 45.0°F7.2°C 42.8°F6.0°C 92% 7.8 mph SW12.6 kmh SW 8.1 mph13.0 kmh 29.35 in993.9 mb 0.00 in0.0 mm 0.00 in0.0 mm 0.24 in6.1 mm
06:00 AM 45.0°F7.2°C 42.8°F6.0°C 92% 8.1 mph SSW13.0 kmh SSW 12.1 mph19.5 kmh 29.35 in993.9 mb 0.00 in0.0 mm 0.00 in0.0 mm 0.24 in6.1 mm
05:58 AM 45.0°F7.2°C 42.8°F6.0°C 92% 12.1 mph S19.5 kmh S 12.1 mph19.5 kmh 29.35 in993.9 mb 0.00 in0.0 mm 0.00 in0.0 mm 0.24 in6.1 mm
05:56 AM 45.0°F7.2°C 42.8°F6.0°C 92% 7.8 mph SSW12.6 kmh SSW 10.5 mph16.9 kmh 29.35 in993.9 mb 0.00 in0.0 mm 0.00 in0.0 mm 0.24 in6.1 mm
05:54 AM 45.0°F7.2°C 43.0°F6.1°C 93% 10.5 mph SW16.9 kmh SW 10.5 mph16.9 kmh 29.35 in993.9 mb 0.00 in0.0 mm 0.00 in0.0 mm 0.24 in6.1 mm
05:52 AM 45.0°F7.2°C 43.0°F6.1°C 93% 10.3 mph S16.6 kmh S 10.3 mph16.6 kmh 29.35 in993.9 mb 0.00 in0.0 mm 0.00 in0.0 mm 0.24 in6.1 mm
05:50 AM 45.0°F7.2°C 43.0°F6.1°C 93% 7.8 mph SSW12.6 kmh SSW 11.0 mph17.7 kmh 29.35 in993.9 mb 0.00 in0.0 mm 0.00 in0.0 mm 0.24 in6.1 mm
05:48 AM 45.0°F7.2°C 43.0°F6.1°C 93% 11.0 mph SSW17.7 kmh SSW 11.0 mph17.7 kmh 29.35 in993.9 mb 0.00 in0.0 mm 0.00 in0.0 mm 0.24 in6.1 mm
05:46 AM 45.0°F7.2°C 43.0°F6.1°C 93% 11.0 mph SSW17.7 kmh SSW 12.8 mph20.6 kmh 29.38 in994.9 mb 0.00 in0.0 mm 0.00 in0.0 mm 0.24 in6.1 mm
05:44 AM 45.0°F7.2°C 43.0°F6.1°C 93% 5.6 mph SSW9.0 kmh SSW 5.6 mph9.0 kmh 29.38 in994.9 mb 0.00 in0.0 mm 0.00 in0.0 mm 0.24 in6.1 mm
05:42 AM 45.1°F7.3°C 43.2°F6.2°C 93% 5.6 mph SSE9.0 kmh SSE 7.8 mph12.6 kmh 29.38 in994.9 mb 0.00 in0.0 mm 0.00 in0.0 mm 0.24 in6.1 mm
05:40 AM 45.1°F7.3°C 43.5°F6.4°C 94% 7.8 mph SSW12.6 kmh SSW 7.8 mph12.6 kmh 29.38 in994.9 mb 0.00 in0.0 mm 0.00 in0.0 mm 0.24 in6.1 mm
05:38 AM 45.1°F7.3°C 43.5°F6.4°C 94% 7.4 mph SSW11.9 kmh SSW 8.1 mph13.0 kmh 29.38 in994.9 mb 0.00 in0.0 mm 0.00 in0.0 mm 0.24 in6.1 mm
05:36 AM 45.0°F7.2°C 43.0°F6.1°C 93% 8.1 mph SSW13.0 kmh SSW 13.6 mph21.9 kmh 29.38 in994.9 mb 0.00 in0.0 mm 0.00 in0.0 mm 0.24 in6.1 mm
05:34 AM 44.8°F7.1°C 42.8°F6.0°C 93% 13.6 mph SW21.9 kmh SW 13.6 mph21.9 kmh 29.38 in994.9 mb 0.00 in0.0 mm 0.00 in0.0 mm 0.24 in6.1 mm
05:32 AM 44.8°F7.1°C 42.8°F6.0°C 93% 12.1 mph SSW19.5 kmh SSW 12.1 mph19.5 kmh 29.38 in994.9 mb 0.00 in0.0 mm 0.00 in0.0 mm 0.24 in6.1 mm
05:30 AM 44.8°F7.1°C 42.8°F6.0°C 93% 12.1 mph SSW19.5 kmh SSW 12.1 mph19.5 kmh 29.38 in994.9 mb 0.00 in0.0 mm 0.00 in0.0 mm 0.24 in6.1 mm
05:28 AM 44.8°F7.1°C 42.8°F6.0°C 93% 2.0 mph SSW3.2 kmh SSW 12.8 mph20.6 kmh 29.38 in994.9 mb 0.04 in1.0 mm 0.00 in0.0 mm 0.24 in6.1 mm
05:26 AM 44.6°F7.0°C 42.6°F5.9°C 93% 12.8 mph SSE20.6 kmh SSE 13.0 mph20.9 kmh 29.38 in994.9 mb 0.04 in1.0 mm 0.00 in0.0 mm 0.24 in6.1 mm
05:24 AM 44.6°F7.0°C 42.6°F5.9°C 93% 13.0 mph SW20.9 kmh SW 13.0 mph20.9 kmh 29.38 in994.9 mb 0.08 in2.0 mm 0.00 in0.0 mm 0.24 in6.1 mm
05:22 AM 44.6°F7.0°C 42.6°F5.9°C 93% 6.0 mph SSW9.7 kmh SSW 13.0 mph20.9 kmh 29.38 in994.9 mb 0.08 in2.0 mm 0.00 in0.0 mm 0.24 in6.1 mm
05:20 AM 44.4°F6.9°C 42.8°F6.0°C 94% 6.0 mph S9.7 kmh S 7.6 mph12.2 kmh 29.38 in994.9 mb 0.08 in2.0 mm 0.00 in0.0 mm 0.24 in6.1 mm
05:18 AM 44.4°F6.9°C 42.8°F6.0°C 94% 5.6 mph S9.0 kmh S 10.5 mph16.9 kmh 29.38 in994.9 mb 0.08 in2.0 mm 0.00 in0.0 mm 0.24 in6.1 mm
05:16 AM 44.2°F6.8°C 42.6°F5.9°C 94% 9.2 mph SSW14.8 kmh SSW 9.2 mph14.8 kmh 29.38 in994.9 mb 0.08 in2.0 mm 0.00 in0.0 mm 0.24 in6.1 mm
05:14 AM 44.2°F6.8°C 42.6°F5.9°C 94% 8.5 mph SSW13.7 kmh SSW 14.5 mph23.3 kmh 29.38 in994.9 mb 0.08 in2.0 mm 0.00 in0.0 mm 0.24 in6.1 mm
05:12 AM 44.1°F6.7°C 42.4°F5.8°C 94% 14.5 mph SSW23.3 kmh SSW 14.5 mph23.3 kmh 29.38 in994.9 mb 0.08 in2.0 mm 0.00 in0.0 mm 0.24 in6.1 mm
05:10 AM 44.1°F6.7°C 42.4°F5.8°C 94% 8.5 mph SSW13.7 kmh SSW 8.7 mph14.0 kmh 29.38 in994.9 mb 0.08 in2.0 mm 0.00 in0.0 mm 0.24 in6.1 mm
05:08 AM 44.1°F6.7°C 42.4°F5.8°C 94% 4.5 mph S7.2 kmh S 9.8 mph15.8 kmh 29.38 in994.9 mb 0.08 in2.0 mm 0.00 in0.0 mm 0.24 in6.1 mm
05:06 AM 43.9°F6.6°C 42.3°F5.7°C 94% 7.6 mph S12.2 kmh S 8.5 mph13.7 kmh 29.38 in994.9 mb 0.08 in2.0 mm 0.00 in0.0 mm 0.24 in6.1 mm
05:04 AM 43.9°F6.6°C 41.9°F5.5°C 93% 5.6 mph S9.0 kmh S 5.6 mph9.0 kmh 29.38 in994.9 mb 0.08 in2.0 mm 0.00 in0.0 mm 0.24 in6.1 mm
05:02 AM 43.7°F6.5°C 41.7°F5.4°C 93% 13.4 mph S21.6 kmh S 13.4 mph21.6 kmh 29.38 in994.9 mb 0.08 in2.0 mm 0.00 in0.0 mm 0.24 in6.1 mm
05:00 AM 43.5°F6.4°C 41.7°F5.4°C 93% 8.1 mph SSW13.0 kmh SSW 8.1 mph13.0 kmh 29.38 in994.9 mb 0.08 in2.0 mm 0.00 in0.0 mm 0.24 in6.1 mm
04:58 AM 43.5°F6.4°C 41.7°F5.4°C 93% 7.6 mph SSW12.2 kmh SSW 7.6 mph12.2 kmh 29.38 in994.9 mb 0.08 in2.0 mm 0.00 in0.0 mm 0.24 in6.1 mm
04:56 AM 43.5°F6.4°C 41.7°F5.4°C 93% 6.3 mph SE10.1 kmh SE 10.3 mph16.6 kmh 29.38 in994.9 mb 0.08 in2.0 mm 0.00 in0.0 mm 0.24 in6.1 mm
04:54 AM 43.3°F6.3°C 41.5°F5.3°C 93% 10.3 mph SSW16.6 kmh SSW 10.3 mph16.6 kmh 29.38 in994.9 mb 0.08 in2.0 mm 0.00 in0.0 mm 0.24 in6.1 mm
04:52 AM 43.2°F6.2°C 41.0°F5.0°C 92% 6.7 mph ESE10.8 kmh ESE 7.4 mph11.9 kmh 29.38 in994.9 mb 0.08 in2.0 mm 0.00 in0.0 mm 0.24 in6.1 mm
04:50 AM 43.0°F6.1°C 40.8°F4.9°C 92% 4.0 mph S6.4 kmh S 7.6 mph12.2 kmh 29.38 in994.9 mb 0.08 in2.0 mm 0.00 in0.0 mm 0.24 in6.1 mm
04:48 AM 42.8°F6.0°C 40.3°F4.6°C 91% 4.7 mph SSW7.6 kmh SSW 7.6 mph12.2 kmh 29.38 in994.9 mb 0.08 in2.0 mm 0.00 in0.0 mm 0.24 in6.1 mm
04:46 AM 42.8°F6.0°C 40.3°F4.6°C 91% 6.5 mph SSW10.5 kmh SSW 6.5 mph10.5 kmh 29.38 in994.9 mb 0.08 in2.0 mm 0.00 in0.0 mm 0.24 in6.1 mm
04:44 AM 42.4°F5.8°C 39.7°F4.3°C 90% 7.8 mph SSW12.6 kmh SSW 9.6 mph15.4 kmh 29.38 in994.9 mb 0.08 in2.0 mm 0.00 in0.0 mm 0.24 in6.1 mm
04:42 AM 42.3°F5.7°C 39.6°F4.2°C 90% 9.6 mph SSW15.4 kmh SSW 11.4 mph18.3 kmh 29.38 in994.9 mb 0.08 in2.0 mm 0.00 in0.0 mm 0.24 in6.1 mm
04:40 AM 42.1°F5.6°C 39.0°F3.9°C 89% 3.4 mph SSE5.5 kmh SSE 5.6 mph9.0 kmh 29.38 in994.9 mb 0.08 in2.0 mm 0.00 in0.0 mm 0.24 in6.1 mm
04:38 AM 42.1°F5.6°C 39.0°F3.9°C 89% 5.6 mph SSW9.0 kmh SSW 5.8 mph9.3 kmh 29.38 in994.9 mb 0.08 in2.0 mm 0.00 in0.0 mm 0.24 in6.1 mm
04:36 AM 41.9°F5.5°C 38.7°F3.7°C 88% 2.7 mph S4.3 kmh S 4.9 mph7.9 kmh 29.38 in994.9 mb 0.08 in2.0 mm 0.00 in0.0 mm 0.24 in6.1 mm
04:34 AM 41.7°F5.4°C 38.5°F3.6°C 88% 4.9 mph SE7.9 kmh SE 10.1 mph16.3 kmh 29.38 in994.9 mb 0.08 in2.0 mm 0.00 in0.0 mm 0.24 in6.1 mm
04:32 AM 41.7°F5.4°C 38.5°F3.6°C 88% 4.3 mph SSW6.9 kmh SSW 5.8 mph9.3 kmh 29.38 in994.9 mb 0.08 in2.0 mm 0.00 in0.0 mm 0.24 in6.1 mm
04:30 AM 41.7°F5.4°C 38.7°F3.7°C 89% 5.8 mph SE9.3 kmh SE 7.4 mph11.9 kmh 29.38 in994.9 mb 0.12 in3.0 mm 1.20 in30.5 mm 0.24 in6.1 mm
04:28 AM 42.1°F5.6°C 39.4°F4.1°C 90% 3.6 mph SSW5.8 kmh SSW 3.6 mph5.8 kmh 29.38 in994.9 mb 0.08 in2.0 mm 0.00 in0.0 mm 0.20 in5.1 mm
04:26 AM 42.3°F5.7°C 39.7°F4.3°C 91% 2.0 mph SSW3.2 kmh SSW 6.3 mph10.1 kmh 29.38 in994.9 mb 0.08 in2.0 mm 1.20 in30.5 mm 0.20 in5.1 mm
04:24 AM 42.8°F6.0°C 40.3°F4.6°C 91% 6.3 mph S10.1 kmh S 9.6 mph15.4 kmh 29.38 in994.9 mb 0.04 in1.0 mm 0.00 in0.0 mm 0.16 in4.1 mm
04:22 AM 42.8°F6.0°C 40.3°F4.6°C 91% 4.7 mph S7.6 kmh S 5.8 mph9.3 kmh 29.38 in994.9 mb 0.04 in1.0 mm 0.00 in0.0 mm 0.16 in4.1 mm
04:20 AM 42.8°F6.0°C 40.3°F4.6°C 91% 5.8 mph SSE9.3 kmh SSE 10.5 mph16.9 kmh 29.38 in994.9 mb 0.04 in1.0 mm 0.00 in0.0 mm 0.16 in4.1 mm
04:18 AM 42.8°F6.0°C 40.3°F4.6°C 91% 10.5 mph S16.9 kmh S 11.2 mph18.0 kmh 29.38 in994.9 mb 0.08 in2.0 mm 0.00 in0.0 mm 0.16 in4.1 mm
04:16 AM 42.8°F6.0°C 40.3°F4.6°C 91% 14.5 mph SE23.3 kmh SE 14.5 mph23.3 kmh 29.38 in994.9 mb 0.08 in2.0 mm 0.00 in0.0 mm 0.16 in4.1 mm
04:14 AM 42.8°F6.0°C 40.3°F4.6°C 91% 12.8 mph SE20.6 kmh SE 12.8 mph20.6 kmh 29.38 in994.9 mb 0.08 in2.0 mm 0.00 in0.0 mm 0.16 in4.1 mm
04:12 AM 42.8°F6.0°C 40.3°F4.6°C 91% 6.3 mph ESE10.1 kmh ESE 19.0 mph30.6 kmh 29.38 in994.9 mb 0.08 in2.0 mm 0.00 in0.0 mm 0.16 in4.1 mm
04:10 AM 42.6°F5.9°C 40.5°F4.7°C 92% 19.0 mph SE30.6 kmh SE 19.0 mph30.6 kmh 29.38 in994.9 mb 0.08 in2.0 mm 0.00 in0.0 mm 0.16 in4.1 mm
04:08 AM 42.6°F5.9°C 40.5°F4.7°C 92% 6.0 mph SSW9.7 kmh SSW 10.3 mph16.6 kmh 29.38 in994.9 mb 0.08 in2.0 mm 0.00 in0.0 mm 0.16 in4.1 mm
04:06 AM 42.6°F5.9°C 40.5°F4.7°C 92% 5.6 mph SE9.0 kmh SE 10.5 mph16.9 kmh 29.38 in994.9 mb 0.08 in2.0 mm 0.00 in0.0 mm 0.16 in4.1 mm
04:04 AM 42.6°F5.9°C 40.1°F4.5°C 91% 15.2 mph SE24.5 kmh SE 15.2 mph24.5 kmh 29.38 in994.9 mb 0.08 in2.0 mm 0.00 in0.0 mm 0.16 in4.1 mm
04:02 AM 42.4°F5.8°C 39.9°F4.4°C 91% 7.4 mph SE11.9 kmh SE 7.6 mph12.2 kmh 29.38 in994.9 mb 0.08 in2.0 mm 0.00 in0.0 mm 0.16 in4.1 mm
04:00 AM 42.4°F5.8°C 39.9°F4.4°C 91% 5.6 mph SE9.0 kmh SE 15.2 mph24.5 kmh 29.38 in994.9 mb 0.08 in2.0 mm 0.00 in0.0 mm 0.16 in4.1 mm
03:58 AM 42.3°F5.7°C 39.7°F4.3°C 91% 13.9 mph SE22.4 kmh SE 15.2 mph24.5 kmh 29.38 in994.9 mb 0.08 in2.0 mm 0.00 in0.0 mm 0.16 in4.1 mm
03:56 AM 42.1°F5.6°C 39.4°F4.1°C 90% 12.3 mph SE19.8 kmh SE 12.3 mph19.8 kmh 29.38 in994.9 mb 0.12 in3.0 mm 0.00 in0.0 mm 0.16 in4.1 mm
03:54 AM 42.1°F5.6°C 39.4°F4.1°C 90% 7.8 mph ESE12.6 kmh ESE 12.5 mph20.1 kmh 29.38 in994.9 mb 0.12 in3.0 mm 0.00 in0.0 mm 0.16 in4.1 mm
03:52 AM 41.9°F5.5°C 39.2°F4.0°C 90% 9.8 mph SE15.8 kmh SE 9.8 mph15.8 kmh 29.38 in994.9 mb 0.12 in3.0 mm 0.00 in0.0 mm 0.16 in4.1 mm
03:50 AM 41.7°F5.4°C 38.7°F3.7°C 89% 9.6 mph SE15.4 kmh SE 9.6 mph15.4 kmh 29.38 in994.9 mb 0.12 in3.0 mm 0.00 in0.0 mm 0.16 in4.1 mm
03:48 AM 41.7°F5.4°C 38.7°F3.7°C 89% 2.9 mph S4.7 kmh S 6.3 mph10.1 kmh 29.38 in994.9 mb 0.12 in3.0 mm 0.00 in0.0 mm 0.16 in4.1 mm
03:46 AM 41.7°F5.4°C 38.7°F3.7°C 89% 6.3 mph SE10.1 kmh SE 8.1 mph13.0 kmh 29.41 in995.9 mb 0.12 in3.0 mm 0.00 in0.0 mm 0.16 in4.1 mm
03:44 AM 41.7°F5.4°C 38.7°F3.7°C 89% 7.2 mph SSE11.6 kmh SSE 7.2 mph11.6 kmh 29.41 in995.9 mb 0.12 in3.0 mm 0.00 in0.0 mm 0.16 in4.1 mm
03:42 AM 41.7°F5.4°C 38.7°F3.7°C 89% 2.0 mph SSW3.2 kmh SSW 2.0 mph3.2 kmh 29.41 in995.9 mb 0.12 in3.0 mm 0.00 in0.0 mm 0.16 in4.1 mm
03:40 AM 41.7°F5.4°C 38.7°F3.7°C 89% 2.0 mph SSW3.2 kmh SSW 3.6 mph5.8 kmh 29.41 in995.9 mb 0.12 in3.0 mm 0.00 in0.0 mm 0.16 in4.1 mm
03:38 AM 41.7°F5.4°C 38.7°F3.7°C 89% 3.6 mph SSW5.8 kmh SSW 4.3 mph6.9 kmh 29.41 in995.9 mb 0.12 in3.0 mm 0.00 in0.0 mm 0.16 in4.1 mm
03:36 AM 41.5°F5.3°C 38.3°F3.5°C 88% Calm Calm 3.4 mph5.5 kmh 29.41 in995.9 mb 0.12 in3.0 mm 0.00 in0.0 mm 0.16 in4.1 mm
03:34 AM 41.4°F5.2°C 38.1°F3.4°C 88% 8.7 mph SSW14.0 kmh SSW 9.8 mph15.8 kmh 29.41 in995.9 mb 0.12 in3.0 mm 0.00 in0.0 mm 0.16 in4.1 mm
03:32 AM 41.4°F5.2°C 38.1°F3.4°C 88% 9.8 mph SSW15.8 kmh SSW 9.8 mph15.8 kmh 29.38 in994.9 mb 0.12 in3.0 mm 1.20 in30.5 mm 0.16 in4.1 mm
03:30 AM 41.4°F5.2°C 38.1°F3.4°C 88% 3.1 mph SSE5.0 kmh SSE 6.7 mph10.8 kmh 29.38 in994.9 mb 0.08 in2.0 mm 0.00 in0.0 mm 0.16 in4.1 mm
03:28 AM 41.5°F5.3°C 38.5°F3.6°C 89% 6.7 mph SSW10.8 kmh SSW 6.7 mph10.8 kmh 29.38 in994.9 mb 0.12 in3.0 mm 0.00 in0.0 mm 0.12 in3.0 mm
03:26 AM 41.5°F5.3°C 38.5°F3.6°C 89% 6.0 mph SSW9.7 kmh SSW 6.0 mph9.7 kmh 29.38 in994.9 mb 0.12 in3.0 mm 0.00 in0.0 mm 0.12 in3.0 mm
03:24 AM 41.5°F5.3°C 38.5°F3.6°C 89% 5.6 mph SSW9.0 kmh SSW 13.2 mph21.2 kmh 29.38 in994.9 mb 0.12 in3.0 mm 0.00 in0.0 mm 0.12 in3.0 mm
03:22 AM 41.5°F5.3°C 38.5°F3.6°C 89% 13.2 mph SE21.2 kmh SE 13.2 mph21.2 kmh 29.38 in994.9 mb 0.12 in3.0 mm 0.00 in0.0 mm 0.12 in3.0 mm
03:20 AM 41.5°F5.3°C 38.3°F3.5°C 88% 7.8 mph SSE12.6 kmh SSE 14.5 mph23.3 kmh 29.38 in994.9 mb 0.12 in3.0 mm 1.20 in30.5 mm 0.12 in3.0 mm
03:18 AM 41.5°F5.3°C 38.3°F3.5°C 88% 14.5 mph SSE23.3 kmh SSE 14.5 mph23.3 kmh 29.38 in994.9 mb 0.08 in2.0 mm 0.00 in0.0 mm 0.08 in2.0 mm
03:16 AM 41.4°F5.2°C 38.1°F3.4°C 88% 10.3 mph ESE16.6 kmh ESE 11.0 mph17.7 kmh 29.38 in994.9 mb 0.08 in2.0 mm 0.00 in0.0 mm 0.08 in2.0 mm
03:14 AM 41.4°F5.2°C 38.1°F3.4°C 88% 13.2 mph SSE21.2 kmh SSE 13.2 mph21.2 kmh 29.38 in994.9 mb 0.08 in2.0 mm 0.00 in0.0 mm 0.08 in2.0 mm
03:11 AM 41.4°F5.2°C 38.1°F3.4°C 88% 12.1 mph ESE19.5 kmh ESE 17.4 mph28.0 kmh 29.38 in994.9 mb 0.08 in2.0 mm 0.00 in0.0 mm 0.08 in2.0 mm
03:09 AM 41.4°F5.2°C 38.1°F3.4°C 88% 9.8 mph ESE15.8 kmh ESE 9.8 mph15.8 kmh 29.38 in994.9 mb 0.08 in2.0 mm 0.00 in0.0 mm 0.08 in2.0 mm
03:07 AM 41.2°F5.1°C 37.9°F3.3°C 88% 7.8 mph SSW12.6 kmh SSW 13.2 mph21.2 kmh 29.38 in994.9 mb 0.08 in2.0 mm 0.00 in0.0 mm 0.08 in2.0 mm
03:05 AM 41.2°F5.1°C 37.9°F3.3°C 88% 13.2 mph SE21.2 kmh SE 16.1 mph25.9 kmh 29.38 in994.9 mb 0.08 in2.0 mm 0.00 in0.0 mm 0.08 in2.0 mm
03:03 AM 41.2°F5.1°C 37.6°F3.1°C 87% 16.1 mph ESE25.9 kmh ESE 16.1 mph25.9 kmh 29.38 in994.9 mb 0.08 in2.0 mm 0.00 in0.0 mm 0.08 in2.0 mm
03:01 AM 41.2°F5.1°C 37.6°F3.1°C 87% 13.6 mph ESE21.9 kmh ESE 13.6 mph21.9 kmh 29.41 in995.9 mb 0.08 in2.0 mm 0.00 in0.0 mm 0.08 in2.0 mm
02:59 AM 41.2°F5.1°C 37.6°F3.1°C 87% 19.2 mph SSE30.9 kmh SSE 19.2 mph30.9 kmh 29.41 in995.9 mb 0.08 in2.0 mm 1.20 in30.5 mm 0.08 in2.0 mm
02:57 AM 41.2°F5.1°C 37.6°F3.1°C 87% 10.5 mph ESE16.9 kmh ESE 22.8 mph36.7 kmh 29.41 in995.9 mb 0.04 in1.0 mm 0.00 in0.0 mm 0.04 in1.0 mm
02:55 AM 41.2°F5.1°C 37.6°F3.1°C 87% 22.8 mph SE36.7 kmh SE 22.8 mph36.7 kmh 29.41 in995.9 mb 0.04 in1.0 mm 0.00 in0.0 mm 0.04 in1.0 mm
02:53 AM 41.0°F5.0°C 37.4°F3.0°C 87% 10.5 mph SSE16.9 kmh SSE 15.4 mph24.8 kmh 29.41 in995.9 mb 0.04 in1.0 mm 0.00 in0.0 mm 0.04 in1.0 mm
02:49 AM 41.0°F5.0°C 37.2°F2.9°C 86% 9.8 mph SSE15.8 kmh SSE 12.3 mph19.8 kmh 29.41 in995.9 mb 0.04 in1.0 mm 0.00 in0.0 mm 0.04 in1.0 mm
02:47 AM 41.0°F5.0°C 37.2°F2.9°C 86% 12.3 mph S19.8 kmh S 17.4 mph28.0 kmh 29.41 in995.9 mb 0.04 in1.0 mm 0.00 in0.0 mm 0.04 in1.0 mm
02:45 AM 41.0°F5.0°C 37.2°F2.9°C 86% 17.4 mph SE28.0 kmh SE 17.4 mph28.0 kmh 29.41 in995.9 mb 0.04 in1.0 mm 0.00 in0.0 mm 0.04 in1.0 mm
02:43 AM 41.0°F5.0°C 37.2°F2.9°C 86% 10.7 mph SE17.2 kmh SE 15.2 mph24.5 kmh 29.41 in995.9 mb 0.04 in1.0 mm 0.00 in0.0 mm 0.04 in1.0 mm
02:41 AM 41.0°F5.0°C 37.2°F2.9°C 86% 13.0 mph SSE20.9 kmh SSE 17.2 mph27.7 kmh 29.41 in995.9 mb 0.04 in1.0 mm 0.00 in0.0 mm 0.04 in1.0 mm
02:39 AM 41.0°F5.0°C 37.2°F2.9°C 86% 17.2 mph SE27.7 kmh SE 23.9 mph38.5 kmh 29.41 in995.9 mb 0.04 in1.0 mm 0.00 in0.0 mm 0.04 in1.0 mm
02:37 AM 41.0°F5.0°C 37.2°F2.9°C 86% 12.5 mph SE20.1 kmh SE 13.6 mph21.9 kmh 29.41 in995.9 mb 0.04 in1.0 mm 0.00 in0.0 mm 0.04 in1.0 mm
02:35 AM 41.0°F5.0°C 37.2°F2.9°C 86% 13.2 mph SSE21.2 kmh SSE 19.0 mph30.6 kmh 29.41 in995.9 mb 0.04 in1.0 mm 0.00 in0.0 mm 0.04 in1.0 mm
02:33 AM 41.0°F5.0°C 37.2°F2.9°C 86% 15.7 mph SE25.3 kmh SE 17.4 mph28.0 kmh 29.41 in995.9 mb 0.04 in1.0 mm 0.00 in0.0 mm 0.04 in1.0 mm
02:31 AM 41.0°F5.0°C 37.2°F2.9°C 86% 17.4 mph SSE28.0 kmh SSE 22.6 mph36.4 kmh 29.41 in995.9 mb 0.04 in1.0 mm 0.00 in0.0 mm 0.04 in1.0 mm
02:29 AM 41.0°F5.0°C 36.9°F2.7°C 85% 22.6 mph SSE36.4 kmh SSE 22.6 mph36.4 kmh 29.41 in995.9 mb 0.04 in1.0 mm 1.20 in30.5 mm 0.04 in1.0 mm
02:27 AM 41.0°F5.0°C 36.9°F2.7°C 85% 13.2 mph SE21.2 kmh SE 20.4 mph32.8 kmh 29.41 in995.9 mb 0.00 in0.0 mm 0.00 in0.0 mm 0.00 in0.0 mm
02:25 AM 41.0°F5.0°C 36.9°F2.7°C 85% 20.4 mph SSE32.8 kmh SSE 20.4 mph32.8 kmh 29.41 in995.9 mb 0.00 in0.0 mm 0.00 in0.0 mm 0.00 in0.0 mm
02:23 AM 41.0°F5.0°C 36.9°F2.7°C 85% 18.8 mph ESE30.3 kmh ESE 19.7 mph31.7 kmh 29.41 in995.9 mb 0.00 in0.0 mm 0.00 in0.0 mm 0.00 in0.0 mm
02:21 AM 41.0°F5.0°C 36.9°F2.7°C 85% 19.5 mph SSE31.4 kmh SSE 19.5 mph31.4 kmh 29.41 in995.9 mb 0.00 in0.0 mm 0.00 in0.0 mm 0.00 in0.0 mm
02:19 AM 40.8°F4.9°C 36.7°F2.6°C 85% 19.0 mph ESE30.6 kmh ESE 19.9 mph32.0 kmh 29.41 in995.9 mb 0.00 in0.0 mm 0.00 in0.0 mm 0.00 in0.0 mm
02:17 AM 40.8°F4.9°C 36.7°F2.6°C 85% 10.3 mph SSE16.6 kmh SSE 14.1 mph22.7 kmh 29.41 in995.9 mb 0.00 in0.0 mm 0.00 in0.0 mm 0.00 in0.0 mm
02:15 AM 40.8°F4.9°C 36.7°F2.6°C 85% 13.2 mph SSE21.2 kmh SSE 13.2 mph21.2 kmh 29.41 in995.9 mb 0.00 in0.0 mm 0.00 in0.0 mm 0.00 in0.0 mm
02:13 AM 40.8°F4.9°C 36.3°F2.4°C 84% 17.7 mph SSW28.5 kmh SSW 17.7 mph28.5 kmh 29.41 in995.9 mb 0.00 in0.0 mm 0.00 in0.0 mm 0.00 in0.0 mm
02:11 AM 40.8°F4.9°C 36.3°F2.4°C 84% 10.7 mph SSE17.2 kmh SSE 17.7 mph28.5 kmh 29.41 in995.9 mb 0.00 in0.0 mm 0.00 in0.0 mm 0.00 in0.0 mm
02:09 AM 40.8°F4.9°C 36.3°F2.4°C 84% 17.7 mph SE28.5 kmh SE 23.7 mph38.1 kmh 29.41 in995.9 mb 0.00 in0.0 mm 0.00 in0.0 mm 0.00 in0.0 mm
02:07 AM 41.0°F5.0°C 36.5°F2.5°C 84% 23.7 mph SE38.1 kmh SE 24.2 mph38.9 kmh 29.41 in995.9 mb 0.00 in0.0 mm 0.00 in0.0 mm 0.00 in0.0 mm
02:05 AM 41.0°F5.0°C 36.5°F2.5°C 84% 12.5 mph S20.1 kmh S 24.2 mph38.9 kmh 29.41 in995.9 mb 0.00 in0.0 mm 0.00 in0.0 mm 0.00 in0.0 mm
02:03 AM 41.0°F5.0°C 36.3°F2.4°C 83% 23.3 mph SE37.5 kmh SE 23.3 mph37.5 kmh 29.41 in995.9 mb 0.00 in0.0 mm 0.00 in0.0 mm 0.00 in0.0 mm
02:01 AM 41.0°F5.0°C 36.3°F2.4°C 83% 12.8 mph SE20.6 kmh SE 21.3 mph34.3 kmh 29.41 in995.9 mb 0.00 in0.0 mm 0.00 in0.0 mm 0.00 in0.0 mm
01:59 AM 40.8°F4.9°C 36.1°F2.3°C 83% 13.9 mph ESE22.4 kmh ESE 19.7 mph31.7 kmh 29.41 in995.9 mb 0.00 in0.0 mm 0.00 in0.0 mm 0.00 in0.0 mm
01:57 AM 41.0°F5.0°C 36.3°F2.4°C 83% 18.8 mph SE30.3 kmh SE 18.8 mph30.3 kmh 29.41 in995.9 mb 0.00 in0.0 mm 0.00 in0.0 mm 0.00 in0.0 mm
01:55 AM 41.0°F5.0°C 36.3°F2.4°C 83% 12.5 mph ESE20.1 kmh ESE 19.9 mph32.0 kmh 29.41 in995.9 mb 0.00 in0.0 mm 0.00 in0.0 mm 0.00 in0.0 mm
01:53 AM 40.8°F4.9°C 36.1°F2.3°C 83% 14.8 mph E23.8 kmh E 15.2 mph24.5 kmh 29.41 in995.9 mb 0.00 in0.0 mm 0.00 in0.0 mm 0.00 in0.0 mm
01:51 AM 40.8°F4.9°C 36.1°F2.3°C 83% 15.2 mph SSW24.5 kmh SSW 22.8 mph36.7 kmh 29.41 in995.9 mb 0.00 in0.0 mm 0.00 in0.0 mm 0.00 in0.0 mm
01:49 AM 40.8°F4.9°C 36.1°F2.3°C 83% 18.6 mph S29.9 kmh S 21.9 mph35.2 kmh 29.41 in995.9 mb 0.00 in0.0 mm 0.00 in0.0 mm 0.00 in0.0 mm
01:47 AM 40.8°F4.9°C 36.1°F2.3°C 83% 21.9 mph SE35.2 kmh SE 21.9 mph35.2 kmh 29.41 in995.9 mb 0.00 in0.0 mm 0.00 in0.0 mm 0.00 in0.0 mm
01:45 AM 40.8°F4.9°C 36.1°F2.3°C 83% 19.9 mph SE32.0 kmh SE 20.8 mph33.5 kmh 29.41 in995.9 mb 0.00 in0.0 mm 0.00 in0.0 mm 0.00 in0.0 mm
01:43 AM 40.8°F4.9°C 36.1°F2.3°C 83% 22.6 mph S36.4 kmh S 22.6 mph36.4 kmh 29.41 in995.9 mb 0.00 in0.0 mm 0.00 in0.0 mm 0.00 in0.0 mm
01:41 AM 40.8°F4.9°C 35.8°F2.1°C 82% 13.2 mph SE21.2 kmh SE 13.2 mph21.2 kmh 29.41 in995.9 mb 0.00 in0.0 mm 0.00 in0.0 mm 0.00 in0.0 mm
01:39 AM 40.8°F4.9°C 35.8°F2.1°C 82% 19.2 mph SSE30.9 kmh SSE 19.2 mph30.9 kmh 29.41 in995.9 mb 0.00 in0.0 mm 0.00 in0.0 mm 0.00 in0.0 mm
01:37 AM 40.8°F4.9°C 35.8°F2.1°C 82% 19.2 mph SSE30.9 kmh SSE 19.5 mph31.4 kmh 29.41 in995.9 mb 0.00 in0.0 mm 0.00 in0.0 mm 0.00 in0.0 mm
01:35 AM 40.8°F4.9°C 35.8°F2.1°C 82% 19.2 mph SSE30.9 kmh SSE 21.0 mph33.8 kmh 29.41 in995.9 mb 0.00 in0.0 mm 0.00 in0.0 mm 0.00 in0.0 mm
01:33 AM 40.8°F4.9°C 35.8°F2.1°C 82% 19.5 mph ESE31.4 kmh ESE 21.0 mph33.8 kmh 29.41 in995.9 mb 0.00 in0.0 mm 0.00 in0.0 mm 0.00 in0.0 mm
01:31 AM 40.8°F4.9°C 35.8°F2.1°C 82% 13.2 mph SE21.2 kmh SE 15.4 mph24.8 kmh 29.41 in995.9 mb 0.00 in0.0 mm 0.00 in0.0 mm 0.00 in0.0 mm
01:29 AM 40.8°F4.9°C 35.8°F2.1°C 82% 15.4 mph S24.8 kmh S 19.7 mph31.7 kmh 29.41 in995.9 mb 0.00 in0.0 mm 0.00 in0.0 mm 0.00 in0.0 mm
01:27 AM 40.8°F4.9°C 35.4°F1.9°C 81% 14.3 mph SE23.0 kmh SE 14.3 mph23.0 kmh 29.41 in995.9 mb 0.00 in0.0 mm 0.00 in0.0 mm 0.00 in0.0 mm
01:25 AM 40.8°F4.9°C 35.4°F1.9°C 81% 13.2 mph SSE21.2 kmh SSE 14.3 mph23.0 kmh 29.41 in995.9 mb 0.00 in0.0 mm 0.00 in0.0 mm 0.00 in0.0 mm
01:23 AM 40.8°F4.9°C 35.4°F1.9°C 81% 13.6 mph SSE21.9 kmh SSE 19.2 mph30.9 kmh 29.41 in995.9 mb 0.00 in0.0 mm 0.00 in0.0 mm 0.00 in0.0 mm
01:21 AM 40.8°F4.9°C 35.4°F1.9°C 81% 16.6 mph SE26.7 kmh SE 22.6 mph36.4 kmh 29.41 in995.9 mb 0.00 in0.0 mm 0.00 in0.0 mm 0.00 in0.0 mm
01:19 AM 40.8°F4.9°C 35.4°F1.9°C 81% 22.6 mph SE36.4 kmh SE 22.6 mph36.4 kmh 29.41 in995.9 mb 0.00 in0.0 mm 0.00 in0.0 mm 0.00 in0.0 mm
01:17 AM 40.8°F4.9°C 35.4°F1.9°C 81% 9.4 mph SE15.1 kmh SE 16.1 mph25.9 kmh 29.44 in997.0 mb 0.00 in0.0 mm 0.00 in0.0 mm 0.00 in0.0 mm
01:15 AM 40.8°F4.9°C 35.4°F1.9°C 81% 8.5 mph ESE13.7 kmh ESE 16.6 mph26.7 kmh 29.44 in997.0 mb 0.00 in0.0 mm 0.00 in0.0 mm 0.00 in0.0 mm
01:13 AM 40.8°F4.9°C 35.4°F1.9°C 81% 16.6 mph S26.7 kmh S 17.4 mph28.0 kmh 29.44 in997.0 mb 0.00 in0.0 mm 0.00 in0.0 mm 0.00 in0.0 mm
01:11 AM 40.8°F4.9°C 35.4°F1.9°C 81% 17.4 mph ESE28.0 kmh ESE 24.4 mph39.3 kmh 29.44 in997.0 mb 0.00 in0.0 mm 0.00 in0.0 mm 0.00 in0.0 mm
01:09 AM 40.8°F4.9°C 35.1°F1.7°C 80% 20.6 mph SSE33.2 kmh SSE 25.7 mph41.4 kmh 29.44 in997.0 mb 0.00 in0.0 mm 0.00 in0.0 mm 0.00 in0.0 mm
01:07 AM 40.6°F4.8°C 34.9°F1.6°C 80% 11.4 mph SSE18.3 kmh SSE 17.7 mph28.5 kmh 29.44 in997.0 mb 0.00 in0.0 mm 0.00 in0.0 mm 0.00 in0.0 mm
01:05 AM 40.6°F4.8°C 34.9°F1.6°C 80% 17.7 mph SE28.5 kmh SE 17.7 mph28.5 kmh 29.44 in997.0 mb 0.00 in0.0 mm 0.00 in0.0 mm 0.00 in0.0 mm
01:03 AM 40.6°F4.8°C 34.9°F1.6°C 80% 8.7 mph SSE14.0 kmh SSE 15.9 mph25.6 kmh 29.44 in997.0 mb 0.00 in0.0 mm 0.00 in0.0 mm 0.00 in0.0 mm
01:01 AM 40.6°F4.8°C 34.9°F1.6°C 80% 15.9 mph SSE25.6 kmh SSE 18.6 mph29.9 kmh 29.44 in997.0 mb 0.00 in0.0 mm 0.00 in0.0 mm 0.00 in0.0 mm
12:59 AM 40.6°F4.8°C 34.9°F1.6°C 80% 18.6 mph SE29.9 kmh SE 18.6 mph29.9 kmh 29.44 in997.0 mb 0.00 in0.0 mm 0.00 in0.0 mm 0.00 in0.0 mm
12:57 AM 40.6°F4.8°C 34.9°F1.6°C 80% 12.1 mph SSE19.5 kmh SSE 15.2 mph24.5 kmh 29.44 in997.0 mb 0.00 in0.0 mm 0.00 in0.0 mm 0.00 in0.0 mm
12:55 AM 40.6°F4.8°C 34.9°F1.6°C 80% 15.2 mph SE24.5 kmh SE 17.4 mph28.0 kmh 29.44 in997.0 mb 0.00 in0.0 mm 0.00 in0.0 mm 0.00 in0.0 mm
12:53 AM 40.6°F4.8°C 34.9°F1.6°C 80% 15.2 mph SE24.5 kmh SE 26.2 mph42.2 kmh 29.44 in997.0 mb 0.00 in0.0 mm 0.00 in0.0 mm 0.00 in0.0 mm
12:51 AM 40.6°F4.8°C 34.9°F1.6°C 80% 14.8 mph SE23.8 kmh SE 15.4 mph24.8 kmh 29.44 in997.0 mb 0.00 in0.0 mm 0.00 in0.0 mm 0.00 in0.0 mm
12:49 AM 40.6°F4.8°C 34.9°F1.6°C 80% 14.5 mph SSW23.3 kmh SSW 14.5 mph23.3 kmh 29.44 in997.0 mb 0.00 in0.0 mm 0.00 in0.0 mm 0.00 in0.0 mm
12:47 AM 40.6°F4.8°C 34.9°F1.6°C 80% 10.3 mph NNE16.6 kmh NNE 16.6 mph26.7 kmh 29.44 in997.0 mb 0.00 in0.0 mm 0.00 in0.0 mm 0.00 in0.0 mm
12:45 AM 40.6°F4.8°C 34.9°F1.6°C 80% 16.8 mph ESE27.0 kmh ESE 16.8 mph27.0 kmh 29.44 in997.0 mb 0.00 in0.0 mm 0.00 in0.0 mm 0.00 in0.0 mm
12:43 AM 40.6°F4.8°C 34.9°F1.6°C 80% 14.3 mph SSE23.0 kmh SSE 14.3 mph23.0 kmh 29.44 in997.0 mb 0.00 in0.0 mm 0.00 in0.0 mm 0.00 in0.0 mm
12:41 AM 40.6°F4.8°C 34.7°F1.5°C 79% 13.6 mph SE21.9 kmh SE 22.1 mph35.6 kmh 29.44 in997.0 mb 0.00 in0.0 mm 0.00 in0.0 mm 0.00 in0.0 mm
12:39 AM 40.6°F4.8°C 34.9°F1.6°C 80% 22.1 mph S35.6 kmh S 22.1 mph35.6 kmh 29.44 in997.0 mb 0.00 in0.0 mm 0.00 in0.0 mm 0.00 in0.0 mm
12:37 AM 40.6°F4.8°C 34.7°F1.5°C 79% 17.7 mph SSE28.5 kmh SSE 17.7 mph28.5 kmh 29.44 in997.0 mb 0.00 in0.0 mm 0.00 in0.0 mm 0.00 in0.0 mm
12:35 AM 40.6°F4.8°C 34.7°F1.5°C 79% 15.2 mph SSE24.5 kmh SSE 17.7 mph28.5 kmh 29.44 in997.0 mb 0.00 in0.0 mm 0.00 in0.0 mm 0.00 in0.0 mm
12:33 AM 40.6°F4.8°C 34.7°F1.5°C 79% 17.7 mph SSE28.5 kmh SSE 17.7 mph28.5 kmh 29.44 in997.0 mb 0.00 in0.0 mm 0.00 in0.0 mm 0.00 in0.0 mm
12:31 AM 40.6°F4.8°C 34.7°F1.5°C 79% 10.3 mph SE16.6 kmh SE 17.4 mph28.0 kmh 29.44 in997.0 mb 0.00 in0.0 mm 0.00 in0.0 mm 0.00 in0.0 mm
12:29 AM 40.6°F4.8°C 34.7°F1.5°C 79% 11.0 mph SE17.7 kmh SE 11.9 mph19.2 kmh 29.44 in997.0 mb 0.00 in0.0 mm 0.00 in0.0 mm 0.00 in0.0 mm
12:27 AM 40.6°F4.8°C 34.7°F1.5°C 79% 11.9 mph SE19.2 kmh SE 23.3 mph37.5 kmh 29.44 in997.0 mb 0.00 in0.0 mm 0.00 in0.0 mm 0.00 in0.0 mm
12:25 AM 40.5°F4.7°C 34.5°F1.4°C 79% 13.0 mph SE20.9 kmh SE 13.0 mph20.9 kmh 29.44 in997.0 mb 0.00 in0.0 mm 0.00 in0.0 mm 0.00 in0.0 mm
12:23 AM 40.5°F4.7°C 34.5°F1.4°C 79% 9.8 mph SSE15.8 kmh SSE 25.1 mph40.4 kmh 29.44 in997.0 mb 0.00 in0.0 mm 0.00 in0.0 mm 0.00 in0.0 mm
12:21 AM 40.5°F4.7°C 34.5°F1.4°C 79% 12.5 mph S20.1 kmh S 15.4 mph24.8 kmh 29.44 in997.0 mb 0.00 in0.0 mm 0.00 in0.0 mm 0.00 in0.0 mm
12:19 AM 40.5°F4.7°C 34.5°F1.4°C 79% 13.0 mph SSE20.9 kmh SSE 13.2 mph21.2 kmh 29.44 in997.0 mb 0.00 in0.0 mm 0.00 in0.0 mm 0.00 in0.0 mm
12:17 AM 40.5°F4.7°C 34.5°F1.4°C 79% 17.7 mph SE28.5 kmh SE 17.7 mph28.5 kmh 29.47 in998.0 mb 0.00 in0.0 mm 0.00 in0.0 mm 0.00 in0.0 mm
12:15 AM 40.5°F4.7°C 34.5°F1.4°C 79% 17.7 mph SSE28.5 kmh SSE 17.7 mph28.5 kmh 29.47 in998.0 mb 0.00 in0.0 mm 0.00 in0.0 mm 0.00 in0.0 mm
12:13 AM 40.5°F4.7°C 34.5°F1.4°C 79% 9.4 mph SSE15.1 kmh SSE 17.7 mph28.5 kmh 29.47 in998.0 mb 0.00 in0.0 mm 0.00 in0.0 mm 0.00 in0.0 mm
12:11 AM 40.5°F4.7°C 34.5°F1.4°C 79% 17.7 mph SSE28.5 kmh SSE 17.9 mph28.8 kmh 29.47 in998.0 mb 0.00 in0.0 mm 0.00 in0.0 mm 0.00 in0.0 mm
12:09 AM 40.5°F4.7°C 34.5°F1.4°C 79% 17.9 mph SE28.8 kmh SE 17.9 mph28.8 kmh 29.47 in998.0 mb 0.00 in0.0 mm 0.00 in0.0 mm 0.00 in0.0 mm
12:07 AM 40.5°F4.7°C 34.5°F1.4°C 79% 6.5 mph SSE10.5 kmh SSE 23.5 mph37.8 kmh 29.47 in998.0 mb 0.00 in0.0 mm 0.00 in0.0 mm 0.00 in0.0 mm
12:05 AM 40.5°F4.7°C 34.5°F1.4°C 79% 15.2 mph SSE24.5 kmh SSE 15.2 mph24.5 kmh 29.47 in998.0 mb 0.00 in0.0 mm 0.00 in0.0 mm 0.00 in0.0 mm
12:03 AM 40.5°F4.7°C 34.5°F1.4°C 79% 19.7 mph SE31.7 kmh SE 19.7 mph31.7 kmh 29.47 in998.0 mb 0.00 in0.0 mm 0.00 in0.0 mm 0.00 in0.0 mm